sensor_id;sensor_type;location;lat;lon;timestamp;P1;durP1;ratioP1;P2;durP2;ratioP2
8913;SDS011;4492;48.736;9.092;2023-08-06T00:01:47;2.77;;;2.57;;
8913;SDS011;4492;48.736;9.092;2023-08-06T00:04:12;2.53;;;2.33;;
8913;SDS011;4492;48.736;9.092;2023-08-06T00:06:38;2.73;;;2.53;;
8913;SDS011;4492;48.736;9.092;2023-08-06T00:09:03;2.63;;;2.43;;
8913;SDS011;4492;48.736;9.092;2023-08-06T00:11:29;2.90;;;2.70;;
8913;SDS011;4492;48.736;9.092;2023-08-06T00:13:54;2.97;;;2.67;;
8913;SDS011;4492;48.736;9.092;2023-08-06T00:16:20;4.20;;;3.80;;
8913;SDS011;4492;48.736;9.092;2023-08-06T00:18:45;4.70;;;4.30;;
8913;SDS011;4492;48.736;9.092;2023-08-06T00:21:11;7.50;;;4.97;;
8913;SDS011;4492;48.736;9.092;2023-08-06T00:23:40;9.70;;;6.40;;
8913;SDS011;4492;48.736;9.092;2023-08-06T00:26:06;9.00;;;6.60;;
8913;SDS011;4492;48.736;9.092;2023-08-06T00:28:31;8.77;;;6.20;;
8913;SDS011;4492;48.736;9.092;2023-08-06T00:30:57;7.53;;;5.87;;
8913;SDS011;4492;48.736;9.092;2023-08-06T00:33:23;7.47;;;5.00;;
8913;SDS011;4492;48.736;9.092;2023-08-06T00:35:48;4.40;;;3.90;;
8913;SDS011;4492;48.736;9.092;2023-08-06T00:38:14;3.67;;;3.17;;
8913;SDS011;4492;48.736;9.092;2023-08-06T00:40:40;3.80;;;2.83;;
8913;SDS011;4492;48.736;9.092;2023-08-06T00:43:06;3.10;;;2.80;;
8913;SDS011;4492;48.736;9.092;2023-08-06T00:45:33;5.63;;;3.30;;
8913;SDS011;4492;48.736;9.092;2023-08-06T00:48:00;7.70;;;3.77;;
8913;SDS011;4492;48.736;9.092;2023-08-06T00:50:26;4.13;;;3.80;;
8913;SDS011;4492;48.736;9.092;2023-08-06T00:52:53;3.30;;;3.00;;
8913;SDS011;4492;48.736;9.092;2023-08-06T00:55:19;3.20;;;2.90;;
8913;SDS011;4492;48.736;9.092;2023-08-06T00:57:44;3.13;;;2.93;;
8913;SDS011;4492;48.736;9.092;2023-08-06T01:00:10;3.03;;;2.77;;
8913;SDS011;4492;48.736;9.092;2023-08-06T01:02:36;3.60;;;3.30;;
8913;SDS011;4492;48.736;9.092;2023-08-06T01:05:02;3.53;;;3.23;;
8913;SDS011;4492;48.736;9.092;2023-08-06T01:07:45;3.27;;;2.97;;
8913;SDS011;4492;48.736;9.092;2023-08-06T01:16:06;3.17;;;2.93;;
8913;SDS011;4492;48.736;9.092;2023-08-06T01:18:32;3.93;;;3.10;;
8913;SDS011;4492;48.736;9.092;2023-08-06T01:20:57;3.50;;;3.20;;
8913;SDS011;4492;48.736;9.092;2023-08-06T01:23:23;4.10;;;3.70;;
8913;SDS011;4492;48.736;9.092;2023-08-06T01:26:00;3.60;;;3.30;;
8913;SDS011;4492;48.736;9.092;2023-08-06T01:31:31;5.60;;;2.90;;
8913;SDS011;4492;48.736;9.092;2023-08-06T01:34:00;3.27;;;3.03;;
8913;SDS011;4492;48.736;9.092;2023-08-06T01:36:26;2.93;;;2.73;;
8913;SDS011;4492;48.736;9.092;2023-08-06T01:38:53;5.03;;;3.10;;
8913;SDS011;4492;48.736;9.092;2023-08-06T01:41:19;3.83;;;3.30;;
8913;SDS011;4492;48.736;9.092;2023-08-06T01:43:44;2.90;;;2.70;;
8913;SDS011;4492;48.736;9.092;2023-08-06T01:46:10;5.60;;;3.00;;
8913;SDS011;4492;48.736;9.092;2023-08-06T01:48:35;3.30;;;2.73;;
8913;SDS011;4492;48.736;9.092;2023-08-06T01:51:03;2.87;;;2.60;;
8913;SDS011;4492;48.736;9.092;2023-08-06T01:53:29;5.03;;;2.50;;
8913;SDS011;4492;48.736;9.092;2023-08-06T01:55:54;3.90;;;2.60;;
8913;SDS011;4492;48.736;9.092;2023-08-06T01:58:20;3.03;;;2.50;;
8913;SDS011;4492;48.736;9.092;2023-08-06T02:00:45;3.03;;;2.63;;
8913;SDS011;4492;48.736;9.092;2023-08-06T02:03:11;4.13;;;2.50;;
8913;SDS011;4492;48.736;9.092;2023-08-06T02:05:36;3.20;;;2.53;;
8913;SDS011;4492;48.736;9.092;2023-08-06T02:08:02;4.67;;;2.67;;
8913;SDS011;4492;48.736;9.092;2023-08-06T02:10:28;3.03;;;2.73;;
8913;SDS011;4492;48.736;9.092;2023-08-06T02:12:53;2.60;;;2.40;;
8913;SDS011;4492;48.736;9.092;2023-08-06T02:15:19;4.17;;;2.70;;
8913;SDS011;4492;48.736;9.092;2023-08-06T02:17:44;3.27;;;2.57;;
8913;SDS011;4492;48.736;9.092;2023-08-06T02:20:10;4.73;;;2.73;;
8913;SDS011;4492;48.736;9.092;2023-08-06T02:22:35;4.80;;;2.57;;
8913;SDS011;4492;48.736;9.092;2023-08-06T02:25:01;2.90;;;2.60;;
8913;SDS011;4492;48.736;9.092;2023-08-06T02:27:26;2.70;;;2.33;;
8913;SDS011;4492;48.736;9.092;2023-08-06T02:29:52;2.97;;;2.37;;
8913;SDS011;4492;48.736;9.092;2023-08-06T02:32:17;2.60;;;2.40;;
8913;SDS011;4492;48.736;9.092;2023-08-06T02:34:43;2.63;;;2.43;;
8913;SDS011;4492;48.736;9.092;2023-08-06T02:37:08;2.57;;;2.37;;
8913;SDS011;4492;48.736;9.092;2023-08-06T02:39:34;2.93;;;2.50;;
8913;SDS011;4492;48.736;9.092;2023-08-06T02:42:00;5.93;;;2.70;;
8913;SDS011;4492;48.736;9.092;2023-08-06T02:44:29;3.53;;;2.60;;
8913;SDS011;4492;48.736;9.092;2023-08-06T02:46:54;4.03;;;2.57;;
8913;SDS011;4492;48.736;9.092;2023-08-06T02:49:20;2.40;;;2.20;;
8913;SDS011;4492;48.736;9.092;2023-08-06T02:51:46;3.03;;;2.30;;
8913;SDS011;4492;48.736;9.092;2023-08-06T02:54:11;4.33;;;2.20;;
8913;SDS011;4492;48.736;9.092;2023-08-06T02:56:37;3.00;;;2.40;;
8913;SDS011;4492;48.736;9.092;2023-08-06T02:59:03;2.20;;;2.10;;
8913;SDS011;4492;48.736;9.092;2023-08-06T03:01:28;2.90;;;2.17;;
8913;SDS011;4492;48.736;9.092;2023-08-06T03:03:54;3.70;;;2.30;;
8913;SDS011;4492;48.736;9.092;2023-08-06T03:06:20;2.30;;;2.03;;
8913;SDS011;4492;48.736;9.092;2023-08-06T03:08:45;2.73;;;2.20;;
8913;SDS011;4492;48.736;9.092;2023-08-06T03:11:11;2.33;;;2.23;;
8913;SDS011;4492;48.736;9.092;2023-08-06T03:13:36;2.97;;;2.40;;
8913;SDS011;4492;48.736;9.092;2023-08-06T03:16:02;1.90;;;1.80;;
8913;SDS011;4492;48.736;9.092;2023-08-06T03:18:27;3.47;;;2.10;;
8913;SDS011;4492;48.736;9.092;2023-08-06T03:20:53;2.57;;;2.10;;
8913;SDS011;4492;48.736;9.092;2023-08-06T03:23:19;3.37;;;2.00;;
8913;SDS011;4492;48.736;9.092;2023-08-06T03:25:44;5.97;;;2.10;;
8913;SDS011;4492;48.736;9.092;2023-08-06T03:28:10;2.30;;;2.10;;
8913;SDS011;4492;48.736;9.092;2023-08-06T03:30:36;2.77;;;2.30;;
8913;SDS011;4492;48.736;9.092;2023-08-06T03:33:01;2.67;;;1.90;;
8913;SDS011;4492;48.736;9.092;2023-08-06T03:35:27;4.27;;;1.97;;
8913;SDS011;4492;48.736;9.092;2023-08-06T03:37:53;2.10;;;1.87;;
8913;SDS011;4492;48.736;9.092;2023-08-06T03:40:18;5.33;;;1.97;;
8913;SDS011;4492;48.736;9.092;2023-08-06T03:42:44;2.53;;;1.70;;
8913;SDS011;4492;48.736;9.092;2023-08-06T03:45:09;1.60;;;1.37;;
8913;SDS011;4492;48.736;9.092;2023-08-06T03:47:35;2.00;;;1.70;;
8913;SDS011;4492;48.736;9.092;2023-08-06T03:50:00;4.27;;;1.90;;
8913;SDS011;4492;48.736;9.092;2023-08-06T03:52:26;5.03;;;2.30;;
8913;SDS011;4492;48.736;9.092;2023-08-06T03:54:51;2.93;;;2.20;;
8913;SDS011;4492;48.736;9.092;2023-08-06T03:57:17;4.63;;;1.90;;
8913;SDS011;4492;48.736;9.092;2023-08-06T03:59:42;2.10;;;1.90;;
8913;SDS011;4492;48.736;9.092;2023-08-06T04:02:08;2.10;;;1.83;;
8913;SDS011;4492;48.736;9.092;2023-08-06T04:04:34;2.23;;;1.80;;
8913;SDS011;4492;48.736;9.092;2023-08-06T04:06:59;2.53;;;1.83;;
8913;SDS011;4492;48.736;9.092;2023-08-06T04:09:25;4.23;;;2.00;;
8913;SDS011;4492;48.736;9.092;2023-08-06T04:11:53;2.27;;;1.70;;
8913;SDS011;4492;48.736;9.092;2023-08-06T04:14:18;1.83;;;1.73;;
8913;SDS011;4492;48.736;9.092;2023-08-06T04:16:44;2.23;;;1.60;;
8913;SDS011;4492;48.736;9.092;2023-08-06T04:19:09;2.20;;;2.00;;
8913;SDS011;4492;48.736;9.092;2023-08-06T04:21:35;2.17;;;1.60;;
8913;SDS011;4492;48.736;9.092;2023-08-06T04:24:00;2.57;;;1.63;;
8913;SDS011;4492;48.736;9.092;2023-08-06T04:26:26;2.50;;;2.00;;
8913;SDS011;4492;48.736;9.092;2023-08-06T04:28:52;4.70;;;2.00;;
8913;SDS011;4492;48.736;9.092;2023-08-06T04:31:17;2.40;;;1.40;;
8913;SDS011;4492;48.736;9.092;2023-08-06T04:33:43;2.20;;;1.50;;
8913;SDS011;4492;48.736;9.092;2023-08-06T04:36:08;2.10;;;1.43;;
8913;SDS011;4492;48.736;9.092;2023-08-06T04:38:34;1.57;;;1.47;;
8913;SDS011;4492;48.736;9.092;2023-08-06T04:41:01;2.63;;;1.77;;
8913;SDS011;4492;48.736;9.092;2023-08-06T04:43:28;2.13;;;1.50;;
8913;SDS011;4492;48.736;9.092;2023-08-06T04:45:54;2.33;;;1.60;;
8913;SDS011;4492;48.736;9.092;2023-08-06T04:48:20;1.53;;;1.40;;
8913;SDS011;4492;48.736;9.092;2023-08-06T04:50:46;2.47;;;1.60;;
8913;SDS011;4492;48.736;9.092;2023-08-06T04:53:13;3.50;;;1.50;;
8913;SDS011;4492;48.736;9.092;2023-08-06T04:55:39;1.80;;;1.30;;
8913;SDS011;4492;48.736;9.092;2023-08-06T04:58:04;1.73;;;1.30;;
8913;SDS011;4492;48.736;9.092;2023-08-06T05:00:30;1.57;;;1.17;;
8913;SDS011;4492;48.736;9.092;2023-08-06T05:02:56;2.63;;;1.60;;
8913;SDS011;4492;48.736;9.092;2023-08-06T05:05:22;1.70;;;1.37;;
8913;SDS011;4492;48.736;9.092;2023-08-06T05:07:48;1.27;;;1.00;;
8913;SDS011;4492;48.736;9.092;2023-08-06T05:10:14;1.30;;;1.17;;
8913;SDS011;4492;48.736;9.092;2023-08-06T05:12:40;1.40;;;1.20;;
8913;SDS011;4492;48.736;9.092;2023-08-06T05:15:06;1.47;;;1.30;;
8913;SDS011;4492;48.736;9.092;2023-08-06T05:17:32;2.30;;;1.23;;
8913;SDS011;4492;48.736;9.092;2023-08-06T05:19:58;3.53;;;1.30;;
8913;SDS011;4492;48.736;9.092;2023-08-06T05:22:23;2.07;;;1.20;;
8913;SDS011;4492;48.736;9.092;2023-08-06T05:24:49;2.87;;;1.30;;
8913;SDS011;4492;48.736;9.092;2023-08-06T05:27:14;1.90;;;1.10;;
8913;SDS011;4492;48.736;9.092;2023-08-06T05:29:40;4.07;;;1.33;;
8913;SDS011;4492;48.736;9.092;2023-08-06T05:32:05;1.67;;;0.93;;
8913;SDS011;4492;48.736;9.092;2023-08-06T05:34:31;1.10;;;0.80;;
8913;SDS011;4492;48.736;9.092;2023-08-06T05:36:57;3.33;;;0.90;;
8913;SDS011;4492;48.736;9.092;2023-08-06T05:39:22;0.67;;;0.53;;
8913;SDS011;4492;48.736;9.092;2023-08-06T05:41:48;1.30;;;0.50;;
8913;SDS011;4492;48.736;9.092;2023-08-06T05:44:15;0.73;;;0.50;;
8913;SDS011;4492;48.736;9.092;2023-08-06T05:46:40;1.90;;;0.70;;
8913;SDS011;4492;48.736;9.092;2023-08-06T05:49:06;1.60;;;0.50;;
8913;SDS011;4492;48.736;9.092;2023-08-06T05:51:31;1.77;;;0.50;;
8913;SDS011;4492;48.736;9.092;2023-08-06T05:53:57;0.47;;;0.33;;
8913;SDS011;4492;48.736;9.092;2023-08-06T05:56:22;0.80;;;0.50;;
8913;SDS011;4492;48.736;9.092;2023-08-06T05:58:48;0.93;;;0.50;;
8913;SDS011;4492;48.736;9.092;2023-08-06T06:01:16;2.20;;;0.60;;
8913;SDS011;4492;48.736;9.092;2023-08-06T06:03:41;1.00;;;0.60;;
8913;SDS011;4492;48.736;9.092;2023-08-06T06:06:07;2.47;;;0.43;;
8913;SDS011;4492;48.736;9.092;2023-08-06T06:08:32;0.53;;;0.40;;
8913;SDS011;4492;48.736;9.092;2023-08-06T06:10:59;1.27;;;0.40;;
8913;SDS011;4492;48.736;9.092;2023-08-06T06:13:24;0.87;;;0.57;;
8913;SDS011;4492;48.736;9.092;2023-08-06T06:15:50;2.13;;;0.60;;
8913;SDS011;4492;48.736;9.092;2023-08-06T06:18:18;0.80;;;0.33;;
8913;SDS011;4492;48.736;9.092;2023-08-06T06:20:44;1.17;;;0.50;;
8913;SDS011;4492;48.736;9.092;2023-08-06T06:23:09;1.67;;;0.50;;
8913;SDS011;4492;48.736;9.092;2023-08-06T06:25:35;1.63;;;0.80;;
8913;SDS011;4492;48.736;9.092;2023-08-06T06:28:00;0.80;;;0.60;;
8913;SDS011;4492;48.736;9.092;2023-08-06T06:30:26;0.80;;;0.40;;
8913;SDS011;4492;48.736;9.092;2023-08-06T06:32:51;1.63;;;0.50;;
8913;SDS011;4492;48.736;9.092;2023-08-06T06:35:17;1.27;;;0.50;;
8913;SDS011;4492;48.736;9.092;2023-08-06T06:37:42;5.60;;;1.13;;
8913;SDS011;4492;48.736;9.092;2023-08-06T06:40:08;0.53;;;0.43;;
8913;SDS011;4492;48.736;9.092;2023-08-06T06:42:34;0.53;;;0.50;;
8913;SDS011;4492;48.736;9.092;2023-08-06T06:44:59;1.77;;;0.50;;
8913;SDS011;4492;48.736;9.092;2023-08-06T06:47:25;0.60;;;0.47;;
8913;SDS011;4492;48.736;9.092;2023-08-06T06:49:51;1.83;;;0.50;;
8913;SDS011;4492;48.736;9.092;2023-08-06T06:52:16;0.60;;;0.60;;
8913;SDS011;4492;48.736;9.092;2023-08-06T06:54:42;0.77;;;0.40;;
8913;SDS011;4492;48.736;9.092;2023-08-06T06:57:07;2.07;;;0.67;;
8913;SDS011;4492;48.736;9.092;2023-08-06T06:59:33;0.40;;;0.40;;
8913;SDS011;4492;48.736;9.092;2023-08-06T07:01:58;1.53;;;0.40;;
8913;SDS011;4492;48.736;9.092;2023-08-06T07:04:24;1.07;;;0.60;;
8913;SDS011;4492;48.736;9.092;2023-08-06T07:06:49;0.50;;;0.50;;
8913;SDS011;4492;48.736;9.092;2023-08-06T07:09:16;0.50;;;0.43;;
8913;SDS011;4492;48.736;9.092;2023-08-06T07:11:42;0.70;;;0.40;;
8913;SDS011;4492;48.736;9.092;2023-08-06T07:14:09;1.10;;;0.60;;
8913;SDS011;4492;48.736;9.092;2023-08-06T07:16:34;2.27;;;0.60;;
8913;SDS011;4492;48.736;9.092;2023-08-06T07:19:00;0.50;;;0.50;;
8913;SDS011;4492;48.736;9.092;2023-08-06T07:21:25;1.93;;;0.43;;
8913;SDS011;4492;48.736;9.092;2023-08-06T07:23:51;1.47;;;0.60;;
8913;SDS011;4492;48.736;9.092;2023-08-06T07:26:17;0.53;;;0.50;;
8913;SDS011;4492;48.736;9.092;2023-08-06T07:28:42;2.90;;;0.60;;
8913;SDS011;4492;48.736;9.092;2023-08-06T07:31:09;0.90;;;0.30;;
8913;SDS011;4492;48.736;9.092;2023-08-06T07:33:35;0.30;;;0.30;;
8913;SDS011;4492;48.736;9.092;2023-08-06T07:36:07;0.57;;;0.40;;
8913;SDS011;4492;48.736;9.092;2023-08-06T07:38:36;0.90;;;0.50;;
8913;SDS011;4492;48.736;9.092;2023-08-06T07:41:02;0.23;;;0.20;;
8913;SDS011;4492;48.736;9.092;2023-08-06T07:43:28;0.63;;;0.47;;
8913;SDS011;4492;48.736;9.092;2023-08-06T07:45:54;1.83;;;0.30;;
8913;SDS011;4492;48.736;9.092;2023-08-06T07:48:23;1.50;;;0.30;;
8913;SDS011;4492;48.736;9.092;2023-08-06T07:50:51;0.73;;;0.20;;
8913;SDS011;4492;48.736;9.092;2023-08-06T07:53:18;0.27;;;0.20;;
8913;SDS011;4492;48.736;9.092;2023-08-06T07:55:47;0.67;;;0.13;;
8913;SDS011;4492;48.736;9.092;2023-08-06T07:58:18;0.17;;;0.17;;
8913;SDS011;4492;48.736;9.092;2023-08-06T08:00:48;1.13;;;0.20;;
8913;SDS011;4492;48.736;9.092;2023-08-06T08:03:14;0.30;;;0.30;;
8913;SDS011;4492;48.736;9.092;2023-08-06T08:05:40;0.13;;;0.10;;
8913;SDS011;4492;48.736;9.092;2023-08-06T08:08:06;2.13;;;0.30;;
8913;SDS011;4492;48.736;9.092;2023-08-06T08:10:32;0.33;;;0.20;;
8913;SDS011;4492;48.736;9.092;2023-08-06T08:12:59;0.87;;;0.20;;
8913;SDS011;4492;48.736;9.092;2023-08-06T08:15:28;0.27;;;0.10;;
8913;SDS011;4492;48.736;9.092;2023-08-06T08:17:54;0.60;;;0.23;;
8913;SDS011;4492;48.736;9.092;2023-08-06T08:20:20;1.93;;;0.30;;
8913;SDS011;4492;48.736;9.092;2023-08-06T08:22:46;0.17;;;0.10;;
8913;SDS011;4492;48.736;9.092;2023-08-06T08:25:11;0.10;;;0.10;;
8913;SDS011;4492;48.736;9.092;2023-08-06T08:27:37;0.40;;;0.23;;
8913;SDS011;4492;48.736;9.092;2023-08-06T08:30:02;0.10;;;0.10;;
8913;SDS011;4492;48.736;9.092;2023-08-06T08:32:28;0.10;;;0.10;;
8913;SDS011;4492;48.736;9.092;2023-08-06T08:34:54;0.63;;;0.20;;
8913;SDS011;4492;48.736;9.092;2023-08-06T08:37:20;0.37;;;0.10;;
8913;SDS011;4492;48.736;9.092;2023-08-06T08:39:45;0.93;;;0.20;;
8913;SDS011;4492;48.736;9.092;2023-08-06T08:42:10;0.20;;;0.20;;
8913;SDS011;4492;48.736;9.092;2023-08-06T08:44:36;1.90;;;0.27;;
8913;SDS011;4492;48.736;9.092;2023-08-06T08:47:04;0.27;;;0.07;;
8913;SDS011;4492;48.736;9.092;2023-08-06T08:49:31;0.87;;;0.00;;
8913;SDS011;4492;48.736;9.092;2023-08-06T08:51:57;0.10;;;0.10;;
8913;SDS011;4492;48.736;9.092;2023-08-06T08:54:24;2.30;;;0.20;;
8913;SDS011;4492;48.736;9.092;2023-08-06T08:56:51;0.10;;;0.10;;
8913;SDS011;4492;48.736;9.092;2023-08-06T08:59:16;0.10;;;0.10;;
8913;SDS011;4492;48.736;9.092;2023-08-06T09:01:42;0.37;;;0.20;;
8913;SDS011;4492;48.736;9.092;2023-08-06T09:04:09;0.47;;;0.10;;
8913;SDS011;4492;48.736;9.092;2023-08-06T09:06:36;0.67;;;0.10;;
8913;SDS011;4492;48.736;9.092;2023-08-06T09:09:08;0.20;;;0.17;;
8913;SDS011;4492;48.736;9.092;2023-08-06T09:11:44;0.23;;;0.20;;
8913;SDS011;4492;48.736;9.092;2023-08-06T09:14:11;0.43;;;0.20;;
8913;SDS011;4492;48.736;9.092;2023-08-06T09:16:37;0.20;;;0.10;;
8913;SDS011;4492;48.736;9.092;2023-08-06T09:19:09;1.73;;;0.47;;
8913;SDS011;4492;48.736;9.092;2023-08-06T09:21:40;0.10;;;0.10;;
8913;SDS011;4492;48.736;9.092;2023-08-06T09:24:10;1.13;;;0.13;;
8913;SDS011;4492;48.736;9.092;2023-08-06T09:26:37;0.10;;;0.10;;
8913;SDS011;4492;48.736;9.092;2023-08-06T09:29:05;0.33;;;0.20;;
8913;SDS011;4492;48.736;9.092;2023-08-06T09:31:41;1.10;;;0.40;;
8913;SDS011;4492;48.736;9.092;2023-08-06T09:34:11;0.13;;;0.13;;
8913;SDS011;4492;48.736;9.092;2023-08-06T09:36:40;0.00;;;0.00;;
8913;SDS011;4492;48.736;9.092;2023-08-06T09:39:13;0.10;;;0.07;;
8913;SDS011;4492;48.736;9.092;2023-08-06T09:41:43;0.10;;;0.10;;
8913;SDS011;4492;48.736;9.092;2023-08-06T09:44:16;0.10;;;0.10;;
8913;SDS011;4492;48.736;9.092;2023-08-06T09:46:46;0.13;;;0.07;;
8913;SDS011;4492;48.736;9.092;2023-08-06T09:49:13;1.10;;;0.10;;
8913;SDS011;4492;48.736;9.092;2023-08-06T09:51:38;0.23;;;0.10;;
8913;SDS011;4492;48.736;9.092;2023-08-06T09:54:04;1.73;;;0.13;;
8913;SDS011;4492;48.736;9.092;2023-08-06T09:56:32;0.20;;;0.20;;
8913;SDS011;4492;48.736;9.092;2023-08-06T09:59:02;0.63;;;0.20;;
8913;SDS011;4492;48.736;9.092;2023-08-06T10:01:33;0.50;;;0.20;;
8913;SDS011;4492;48.736;9.092;2023-08-06T10:04:03;0.20;;;0.10;;
8913;SDS011;4492;48.736;9.092;2023-08-06T10:06:32;1.50;;;0.20;;
8913;SDS011;4492;48.736;9.092;2023-08-06T10:09:00;0.10;;;0.10;;
8913;SDS011;4492;48.736;9.092;2023-08-06T10:11:25;0.30;;;0.23;;
8913;SDS011;4492;48.736;9.092;2023-08-06T10:13:58;0.33;;;0.27;;
8913;SDS011;4492;48.736;9.092;2023-08-06T10:16:44;0.40;;;0.30;;
8913;SDS011;4492;48.736;9.092;2023-08-06T10:19:10;0.40;;;0.10;;
8913;SDS011;4492;48.736;9.092;2023-08-06T10:21:38;0.57;;;0.30;;
8913;SDS011;4492;48.736;9.092;2023-08-06T10:24:06;0.37;;;0.10;;
8913;SDS011;4492;48.736;9.092;2023-08-06T10:26:35;0.47;;;0.10;;
8913;SDS011;4492;48.736;9.092;2023-08-06T10:29:01;0.83;;;0.50;;
8913;SDS011;4492;48.736;9.092;2023-08-06T10:34:23;2.13;;;0.20;;
8913;SDS011;4492;48.736;9.092;2023-08-06T10:36:50;0.10;;;0.10;;
8913;SDS011;4492;48.736;9.092;2023-08-06T10:39:18;0.33;;;0.20;;
8913;SDS011;4492;48.736;9.092;2023-08-06T10:41:44;0.10;;;0.10;;
8913;SDS011;4492;48.736;9.092;2023-08-06T10:44:10;1.43;;;0.20;;
8913;SDS011;4492;48.736;9.092;2023-08-06T10:46:36;1.03;;;0.33;;
8913;SDS011;4492;48.736;9.092;2023-08-06T10:49:03;0.10;;;0.10;;
8913;SDS011;4492;48.736;9.092;2023-08-06T10:51:29;0.10;;;0.10;;
8913;SDS011;4492;48.736;9.092;2023-08-06T10:53:55;2.30;;;0.20;;
8913;SDS011;4492;48.736;9.092;2023-08-06T10:56:23;0.40;;;0.20;;
8913;SDS011;4492;48.736;9.092;2023-08-06T10:58:55;0.30;;;0.23;;
8913;SDS011;4492;48.736;9.092;2023-08-06T11:01:21;0.10;;;0.10;;
8913;SDS011;4492;48.736;9.092;2023-08-06T11:03:49;0.00;;;0.00;;
8913;SDS011;4492;48.736;9.092;2023-08-06T11:06:22;0.10;;;0.10;;
8913;SDS011;4492;48.736;9.092;2023-08-06T11:08:49;0.30;;;0.10;;
8913;SDS011;4492;48.736;9.092;2023-08-06T11:11:16;0.30;;;0.20;;
8913;SDS011;4492;48.736;9.092;2023-08-06T11:13:43;0.10;;;0.10;;
8913;SDS011;4492;48.736;9.092;2023-08-06T11:16:13;0.10;;;0.10;;
8913;SDS011;4492;48.736;9.092;2023-08-06T11:18:40;0.30;;;0.30;;
8913;SDS011;4492;48.736;9.092;2023-08-06T11:21:09;0.30;;;0.10;;
8913;SDS011;4492;48.736;9.092;2023-08-06T11:23:36;0.40;;;0.30;;
8913;SDS011;4492;48.736;9.092;2023-08-06T11:26:02;0.20;;;0.20;;
8913;SDS011;4492;48.736;9.092;2023-08-06T11:28:28;0.07;;;0.07;;
8913;SDS011;4492;48.736;9.092;2023-08-06T11:30:54;0.50;;;0.20;;
8913;SDS011;4492;48.736;9.092;2023-08-06T11:35:48;0.50;;;0.50;;
8913;SDS011;4492;48.736;9.092;2023-08-06T11:38:14;1.13;;;0.60;;
8913;SDS011;4492;48.736;9.092;2023-08-06T11:40:41;0.40;;;0.40;;
8913;SDS011;4492;48.736;9.092;2023-08-06T11:43:08;2.37;;;0.50;;
8913;SDS011;4492;48.736;9.092;2023-08-06T11:45:37;0.53;;;0.40;;
8913;SDS011;4492;48.736;9.092;2023-08-06T11:48:02;2.07;;;0.53;;
8913;SDS011;4492;48.736;9.092;2023-08-06T11:50:29;0.67;;;0.60;;
8913;SDS011;4492;48.736;9.092;2023-08-06T11:52:58;0.40;;;0.40;;
8913;SDS011;4492;48.736;9.092;2023-08-06T11:55:25;0.57;;;0.57;;
8913;SDS011;4492;48.736;9.092;2023-08-06T11:57:53;0.50;;;0.50;;
8913;SDS011;4492;48.736;9.092;2023-08-06T12:00:19;1.03;;;0.70;;
8913;SDS011;4492;48.736;9.092;2023-08-06T12:02:47;1.60;;;0.70;;
8913;SDS011;4492;48.736;9.092;2023-08-06T12:05:15;0.80;;;0.70;;
8913;SDS011;4492;48.736;9.092;2023-08-06T12:07:46;0.80;;;0.80;;
8913;SDS011;4492;48.736;9.092;2023-08-06T12:10:13;1.60;;;0.80;;
8913;SDS011;4492;48.736;9.092;2023-08-06T12:12:39;0.73;;;0.73;;
8913;SDS011;4492;48.736;9.092;2023-08-06T12:15:05;1.07;;;0.53;;
8913;SDS011;4492;48.736;9.092;2023-08-06T12:17:32;1.30;;;0.50;;
8913;SDS011;4492;48.736;9.092;2023-08-06T12:19:58;0.67;;;0.63;;
8913;SDS011;4492;48.736;9.092;2023-08-06T12:22:24;2.03;;;0.70;;
8913;SDS011;4492;48.736;9.092;2023-08-06T12:24:49;1.17;;;0.90;;
8913;SDS011;4492;48.736;9.092;2023-08-06T12:27:15;0.60;;;0.60;;
8913;SDS011;4492;48.736;9.092;2023-08-06T12:29:44;1.73;;;0.70;;
8913;SDS011;4492;48.736;9.092;2023-08-06T12:32:13;0.60;;;0.60;;
8913;SDS011;4492;48.736;9.092;2023-08-06T12:34:39;0.60;;;0.60;;
8913;SDS011;4492;48.736;9.092;2023-08-06T12:37:06;0.80;;;0.73;;
8913;SDS011;4492;48.736;9.092;2023-08-06T12:39:32;0.73;;;0.50;;
8913;SDS011;4492;48.736;9.092;2023-08-06T12:42:02;0.80;;;0.70;;
8913;SDS011;4492;48.736;9.092;2023-08-06T12:44:29;1.60;;;1.50;;
8913;SDS011;4492;48.736;9.092;2023-08-06T12:46:54;0.40;;;0.40;;
8913;SDS011;4492;48.736;9.092;2023-08-06T12:49:20;1.57;;;1.47;;
8913;SDS011;4492;48.736;9.092;2023-08-06T12:51:46;1.07;;;0.47;;
8913;SDS011;4492;48.736;9.092;2023-08-06T12:54:12;6.30;;;5.70;;
8913;SDS011;4492;48.736;9.092;2023-08-06T12:56:38;0.40;;;0.40;;
8913;SDS011;4492;48.736;9.092;2023-08-06T12:59:04;0.50;;;0.50;;
8913;SDS011;4492;48.736;9.092;2023-08-06T13:01:29;0.53;;;0.53;;
8913;SDS011;4492;48.736;9.092;2023-08-06T13:03:55;1.20;;;0.60;;
8913;SDS011;4492;48.736;9.092;2023-08-06T13:06:20;1.00;;;0.90;;
8913;SDS011;4492;48.736;9.092;2023-08-06T13:08:46;1.67;;;0.77;;
8913;SDS011;4492;48.736;9.092;2023-08-06T13:11:11;0.70;;;0.60;;
8913;SDS011;4492;48.736;9.092;2023-08-06T13:13:37;0.97;;;0.77;;
8913;SDS011;4492;48.736;9.092;2023-08-06T13:16:02;0.60;;;0.57;;
8913;SDS011;4492;48.736;9.092;2023-08-06T13:18:28;0.73;;;0.53;;
8913;SDS011;4492;48.736;9.092;2023-08-06T13:20:54;1.70;;;0.60;;
8913;SDS011;4492;48.736;9.092;2023-08-06T13:23:20;3.60;;;0.50;;
8913;SDS011;4492;48.736;9.092;2023-08-06T13:25:46;0.60;;;0.60;;
8913;SDS011;4492;48.736;9.092;2023-08-06T13:28:11;0.80;;;0.80;;
8913;SDS011;4492;48.736;9.092;2023-08-06T13:30:38;0.40;;;0.40;;
8913;SDS011;4492;48.736;9.092;2023-08-06T13:33:07;0.80;;;0.80;;
8913;SDS011;4492;48.736;9.092;2023-08-06T13:35:33;0.33;;;0.33;;
8913;SDS011;4492;48.736;9.092;2023-08-06T13:37:59;1.50;;;0.47;;
8913;SDS011;4492;48.736;9.092;2023-08-06T13:40:24;0.40;;;0.40;;
8913;SDS011;4492;48.736;9.092;2023-08-06T13:42:50;0.40;;;0.40;;
8913;SDS011;4492;48.736;9.092;2023-08-06T13:45:15;2.50;;;0.40;;
8913;SDS011;4492;48.736;9.092;2023-08-06T13:47:41;0.30;;;0.30;;
8913;SDS011;4492;48.736;9.092;2023-08-06T13:50:06;0.40;;;0.40;;
8913;SDS011;4492;48.736;9.092;2023-08-06T13:52:33;0.40;;;0.33;;
8913;SDS011;4492;48.736;9.092;2023-08-06T13:55:00;0.77;;;0.40;;
8913;SDS011;4492;48.736;9.092;2023-08-06T13:57:26;0.40;;;0.40;;
8913;SDS011;4492;48.736;9.092;2023-08-06T13:59:52;1.67;;;0.60;;
8913;SDS011;4492;48.736;9.092;2023-08-06T14:02:17;0.83;;;0.50;;
8913;SDS011;4492;48.736;9.092;2023-08-06T14:04:43;0.40;;;0.40;;
8913;SDS011;4492;48.736;9.092;2023-08-06T14:07:08;0.40;;;0.37;;
8913;SDS011;4492;48.736;9.092;2023-08-06T14:09:34;0.30;;;0.30;;
8913;SDS011;4492;48.736;9.092;2023-08-06T14:11:59;0.77;;;0.43;;
8913;SDS011;4492;48.736;9.092;2023-08-06T14:14:25;1.67;;;0.60;;
8913;SDS011;4492;48.736;9.092;2023-08-06T14:16:51;1.70;;;0.40;;
8913;SDS011;4492;48.736;9.092;2023-08-06T14:19:17;0.40;;;0.40;;
8913;SDS011;4492;48.736;9.092;2023-08-06T14:21:42;0.60;;;0.60;;
8913;SDS011;4492;48.736;9.092;2023-08-06T14:24:08;0.40;;;0.40;;
8913;SDS011;4492;48.736;9.092;2023-08-06T14:26:33;0.40;;;0.40;;
8913;SDS011;4492;48.736;9.092;2023-08-06T14:29:00;1.37;;;0.30;;
8913;SDS011;4492;48.736;9.092;2023-08-06T14:31:26;0.40;;;0.40;;
8913;SDS011;4492;48.736;9.092;2023-08-06T14:33:51;0.60;;;0.40;;
8913;SDS011;4492;48.736;9.092;2023-08-06T14:36:17;1.50;;;0.53;;
8913;SDS011;4492;48.736;9.092;2023-08-06T14:38:43;0.60;;;0.37;;
8913;SDS011;4492;48.736;9.092;2023-08-06T14:41:08;0.40;;;0.40;;
8913;SDS011;4492;48.736;9.092;2023-08-06T14:43:34;1.07;;;0.57;;
8913;SDS011;4492;48.736;9.092;2023-08-06T14:46:00;0.97;;;0.67;;
8913;SDS011;4492;48.736;9.092;2023-08-06T14:48:25;0.33;;;0.30;;
8913;SDS011;4492;48.736;9.092;2023-08-06T14:50:51;0.40;;;0.40;;
8913;SDS011;4492;48.736;9.092;2023-08-06T14:53:16;1.47;;;0.50;;
8913;SDS011;4492;48.736;9.092;2023-08-06T14:55:42;1.57;;;0.50;;
8913;SDS011;4492;48.736;9.092;2023-08-06T14:58:07;0.50;;;0.50;;
8913;SDS011;4492;48.736;9.092;2023-08-06T15:00:33;0.87;;;0.63;;
8913;SDS011;4492;48.736;9.092;2023-08-06T15:02:58;0.60;;;0.60;;
8913;SDS011;4492;48.736;9.092;2023-08-06T15:05:24;1.13;;;0.60;;
8913;SDS011;4492;48.736;9.092;2023-08-06T15:07:50;1.43;;;0.60;;
8913;SDS011;4492;48.736;9.092;2023-08-06T15:10:17;0.50;;;0.50;;
8913;SDS011;4492;48.736;9.092;2023-08-06T15:12:43;0.40;;;0.40;;
8913;SDS011;4492;48.736;9.092;2023-08-06T15:15:09;0.50;;;0.50;;
8913;SDS011;4492;48.736;9.092;2023-08-06T15:17:35;0.73;;;0.40;;
8913;SDS011;4492;48.736;9.092;2023-08-06T15:20:00;0.70;;;0.50;;
8913;SDS011;4492;48.736;9.092;2023-08-06T15:22:26;1.40;;;0.40;;
8913;SDS011;4492;48.736;9.092;2023-08-06T15:24:51;0.40;;;0.40;;